<?xml version="1.0" encoding="UTF-8" standalone="no" ?>
<gpx xmlns="http://www.topografix.com/GPX/1/1" xmlns:xsi="http://www.w3.org/2001/XMLSchema-instance" xsi:schemaLocation="http://www.topografix.com/GPX/1/1 http://www.topografix.com/GPX/1/1/gpx.xsd" version="1.1" creator="VisuGPX - https://www.visugpx.com">
  <metadata>
    <name>Raid VTT IFV 2022 de l'enfer</name>
    <desc><![CDATA[Tracé du raid avec le découpage en segments de guidage individuels avec thème d'animation imposé]]></desc>
  </metadata>
  <trk>
    <name><![CDATA[J2 - RUN 5]]></name>
    <desc><![CDATA[Patrimoine : la pastoralisme (+ patrimoine local de Thorame-basse)]]></desc>
    <extensions>
      <line xmlns="http://www.topografix.com/GPX/gpx_style/0/2">
        <color>ffff00</color>
        <width>4</width>
        <dasharray>8</dasharray>
          <extensions>
            <sens>1</sens>
          </extensions>
      </line>
    </extensions>
    <trkseg>
      <trkpt lat="44.0907" lon="6.49973">
        <ele>1130</ele>
        <time>1990-12-07T10:35:13Z</time>
      </trkpt>
      <trkpt lat="44.09098" lon="6.49953">
        <ele>1134</ele>
        <time>1990-12-07T10:35:00Z</time>
      </trkpt>
      <trkpt lat="44.09112" lon="6.49953">
        <ele>1136</ele>
        <time>1990-12-07T10:34:57Z</time>
      </trkpt>
      <trkpt lat="44.09158" lon="6.49937">
        <ele>1141</ele>
        <time>1990-12-07T10:34:48Z</time>
      </trkpt>
      <trkpt lat="44.0921" lon="6.49952">
        <ele>1142</ele>
        <time>1990-12-07T10:34:31Z</time>
      </trkpt>
      <trkpt lat="44.09258" lon="6.5">
        <ele>1143</ele>
        <time>1990-12-07T10:34:19Z</time>
      </trkpt>
      <trkpt lat="44.09358" lon="6.50013">
        <ele>1144</ele>
        <time>1990-12-07T10:34:00Z</time>
      </trkpt>
      <trkpt lat="44.0941" lon="6.50028">
        <ele>1145</ele>
        <time>1990-12-07T10:33:49Z</time>
      </trkpt>
      <trkpt lat="44.09445" lon="6.50042">
        <ele>1147</ele>
        <time>1990-12-07T10:33:42Z</time>
      </trkpt>
      <trkpt lat="44.09492" lon="6.50015">
        <ele>1147</ele>
        <time>1990-12-07T10:33:20Z</time>
      </trkpt>
      <trkpt lat="44.09533" lon="6.50003">
        <ele>1147</ele>
        <time>1990-12-07T10:33:03Z</time>
      </trkpt>
      <trkpt lat="44.09552" lon="6.49992">
        <ele>1152</ele>
        <time>1990-12-07T10:32:53Z</time>
      </trkpt>
      <trkpt lat="44.0954" lon="6.49948">
        <ele>1158</ele>
        <time>1990-12-07T10:32:34Z</time>
      </trkpt>
      <trkpt lat="44.0953" lon="6.49898">
        <ele>1159</ele>
        <time>1990-12-07T10:32:25Z</time>
      </trkpt>
      <trkpt lat="44.09528" lon="6.49852">
        <ele>1159</ele>
        <time>1990-12-07T10:32:19Z</time>
      </trkpt>
      <trkpt lat="44.09518" lon="6.49807">
        <ele>1162</ele>
        <time>1990-12-07T10:32:13Z</time>
      </trkpt>
      <trkpt lat="44.0951" lon="6.49757">
        <ele>1168</ele>
        <time>1990-12-07T10:30:49Z</time>
      </trkpt>
      <trkpt lat="44.0951" lon="6.49693">
        <ele>1167</ele>
        <time>1990-12-07T10:30:22Z</time>
      </trkpt>
      <trkpt lat="44.09517" lon="6.49577">
        <ele>1167</ele>
        <time>1990-12-07T10:29:56Z</time>
      </trkpt>
      <trkpt lat="44.09517" lon="6.49537">
        <ele>1166</ele>
        <time>1990-12-07T10:27:28Z</time>
      </trkpt>
      <trkpt lat="44.09517" lon="6.49503">
        <ele>1166</ele>
        <time>1990-12-07T10:27:07Z</time>
      </trkpt>
      <trkpt lat="44.09517" lon="6.49457">
        <ele>1164</ele>
        <time>1990-12-07T10:26:48Z</time>
      </trkpt>
      <trkpt lat="44.09517" lon="6.49437">
        <ele>1163</ele>
        <time>1990-12-07T10:26:38Z</time>
      </trkpt>
      <trkpt lat="44.0952" lon="6.49395">
        <ele>1161</ele>
        <time>1990-12-07T10:26:21Z</time>
      </trkpt>
      <trkpt lat="44.09513" lon="6.49377">
        <ele>1159</ele>
        <time>1990-12-07T10:26:09Z</time>
      </trkpt>
      <trkpt lat="44.09523" lon="6.49325">
        <ele>1155</ele>
        <time>1990-12-07T10:25:50Z</time>
      </trkpt>
      <trkpt lat="44.09497" lon="6.49302">
        <ele>1151</ele>
        <time>1990-12-07T10:25:21Z</time>
      </trkpt>
      <trkpt lat="44.09483" lon="6.49287">
        <ele>1147</ele>
        <time>1990-12-07T10:25:08Z</time>
      </trkpt>
      <trkpt lat="44.09468" lon="6.49277">
        <ele>1142</ele>
        <time>1990-12-07T10:24:57Z</time>
      </trkpt>
      <trkpt lat="44.09458" lon="6.49235">
        <ele>1137</ele>
        <time>1990-12-07T10:24:37Z</time>
      </trkpt>
      <trkpt lat="44.09468" lon="6.49183">
        <ele>1133</ele>
        <time>1990-12-07T10:24:23Z</time>
      </trkpt>
      <trkpt lat="44.09475" lon="6.49123">
        <ele>1130</ele>
        <time>1990-12-07T10:23:56Z</time>
      </trkpt>
      <trkpt lat="44.09472" lon="6.49103">
        <ele>1131</ele>
        <time>1990-12-07T10:23:49Z</time>
      </trkpt>
      <trkpt lat="44.09475" lon="6.49072">
        <ele>1130</ele>
        <time>1990-12-07T10:23:39Z</time>
      </trkpt>
      <trkpt lat="44.09467" lon="6.49033">
        <ele>1128</ele>
        <time>1990-12-07T10:23:24Z</time>
      </trkpt>
      <trkpt lat="44.09467" lon="6.48997">
        <ele>1127</ele>
        <time>1990-12-07T10:22:59Z</time>
      </trkpt>
      <trkpt lat="44.09463" lon="6.48967">
        <ele>1126</ele>
        <time>1990-12-07T10:22:43Z</time>
      </trkpt>
      <trkpt lat="44.0946" lon="6.4892">
        <ele>1127</ele>
        <time>1990-12-07T10:22:17Z</time>
      </trkpt>
      <trkpt lat="44.0947" lon="6.48865">
        <ele>1126</ele>
        <time>1990-12-07T10:21:47Z</time>
      </trkpt>
      <trkpt lat="44.09467" lon="6.48822">
        <ele>1125</ele>
        <time>1990-12-07T10:21:12Z</time>
      </trkpt>
      <trkpt lat="44.09457" lon="6.48782">
        <ele>1127</ele>
        <time>1990-12-07T10:20:57Z</time>
      </trkpt>
      <trkpt lat="44.09455" lon="6.48763">
        <ele>1126</ele>
        <time>1990-12-07T10:20:50Z</time>
      </trkpt>
      <trkpt lat="44.09438" lon="6.48733">
        <ele>1125</ele>
        <time>1990-12-07T10:20:35Z</time>
      </trkpt>
      <trkpt lat="44.09423" lon="6.48685">
        <ele>1127</ele>
        <time>1990-12-07T10:19:58Z</time>
      </trkpt>
      <trkpt lat="44.0941" lon="6.4865">
        <ele>1127</ele>
        <time>1990-12-07T10:19:32Z</time>
      </trkpt>
      <trkpt lat="44.094" lon="6.48632">
        <ele>1124</ele>
        <time>1990-12-07T10:18:58Z</time>
      </trkpt>
      <trkpt lat="44.09398" lon="6.48558">
        <ele>1125</ele>
        <time>1990-12-07T10:18:37Z</time>
      </trkpt>
      <trkpt lat="44.09393" lon="6.48548">
        <ele>1126</ele>
        <time>1990-12-07T10:18:30Z</time>
      </trkpt>
      <trkpt lat="44.09367" lon="6.48475">
        <ele>1123</ele>
        <time>1990-12-07T10:18:05Z</time>
      </trkpt>
      <trkpt lat="44.09343" lon="6.48437">
        <ele>1122</ele>
        <time>1990-12-07T10:17:50Z</time>
      </trkpt>
      <trkpt lat="44.09302" lon="6.48415">
        <ele>1120</ele>
        <time>1990-12-07T10:17:31Z</time>
      </trkpt>
      <trkpt lat="44.09283" lon="6.48395">
        <ele>1118</ele>
        <time>1990-12-07T10:17:14Z</time>
      </trkpt>
      <trkpt lat="44.09245" lon="6.48357">
        <ele>1118</ele>
        <time>1990-12-07T10:16:54Z</time>
      </trkpt>
      <trkpt lat="44.0923" lon="6.48313">
        <ele>1119</ele>
        <time>1990-12-07T10:16:40Z</time>
      </trkpt>
      <trkpt lat="44.0923" lon="6.48307">
        <ele>1119</ele>
        <time>1990-12-07T10:15:55Z</time>
      </trkpt>
      <trkpt lat="44.09192" lon="6.48283">
        <ele>1120</ele>
        <time>1990-12-07T10:15:43Z</time>
      </trkpt>
      <trkpt lat="44.09155" lon="6.48263">
        <ele>1119</ele>
        <time>1990-12-07T10:15:28Z</time>
      </trkpt>
      <trkpt lat="44.09113" lon="6.48242">
        <ele>1118</ele>
        <time>1990-12-07T10:15:10Z</time>
      </trkpt>
      <trkpt lat="44.0906" lon="6.4821">
        <ele>1118</ele>
        <time>1990-12-07T10:14:44Z</time>
      </trkpt>
      <trkpt lat="44.0903" lon="6.48198">
        <ele>1118</ele>
        <time>1990-12-07T10:14:30Z</time>
      </trkpt>
      <trkpt lat="44.08992" lon="6.4819">
        <ele>1117</ele>
        <time>1990-12-07T10:14:16Z</time>
      </trkpt>
      <trkpt lat="44.08943" lon="6.48148">
        <ele>1114</ele>
        <time>1990-12-07T10:13:51Z</time>
      </trkpt>
      <trkpt lat="44.08907" lon="6.48102">
        <ele>1112</ele>
        <time>1990-12-07T10:13:35Z</time>
      </trkpt>
      <trkpt lat="44.0887" lon="6.48077">
        <ele>1113</ele>
        <time>1990-12-07T10:13:22Z</time>
      </trkpt>
      <trkpt lat="44.08805" lon="6.4807">
        <ele>1109</ele>
        <time>1990-12-07T10:12:55Z</time>
      </trkpt>
      <trkpt lat="44.08745" lon="6.4805">
        <ele>1107</ele>
        <time>1990-12-07T10:12:32Z</time>
      </trkpt>
      <trkpt lat="44.08678" lon="6.48022">
        <ele>1104</ele>
        <time>1990-12-07T10:12:05Z</time>
      </trkpt>
      <trkpt lat="44.08648" lon="6.48005">
        <ele>1104</ele>
        <time>1990-12-07T10:02:33Z</time>
      </trkpt>
      <trkpt lat="44.08622" lon="6.4795">
        <ele>1105</ele>
        <time>1990-12-07T10:02:16Z</time>
      </trkpt>
      <trkpt lat="44.08548" lon="6.47938">
        <ele>1105</ele>
        <time>1990-12-07T10:01:56Z</time>
      </trkpt>
      <trkpt lat="44.08502" lon="6.47948">
        <ele>1105</ele>
        <time>1990-12-07T10:01:45Z</time>
      </trkpt>
      <trkpt lat="44.08447" lon="6.47957">
        <ele>1106</ele>
        <time>1990-12-07T10:01:33Z</time>
      </trkpt>
      <trkpt lat="44.08383" lon="6.4794">
        <ele>1106</ele>
        <time>1990-12-07T10:01:14Z</time>
      </trkpt>
      <trkpt lat="44.08347" lon="6.48015">
        <ele>1103</ele>
        <time>1990-12-07T10:00:56Z</time>
      </trkpt>
      <trkpt lat="44.08293" lon="6.48055">
        <ele>1101</ele>
        <time>1990-12-07T10:00:39Z</time>
      </trkpt>
      <trkpt lat="44.08207" lon="6.48125">
        <ele>1097</ele>
        <time>1990-12-07T10:00:11Z</time>
      </trkpt>
      <trkpt lat="44.08148" lon="6.48207">
        <ele>1094</ele>
        <time>1990-12-07T09:59:50Z</time>
      </trkpt>
      <trkpt lat="44.08127" lon="6.48223">
        <ele>1094</ele>
        <time>1990-12-07T09:59:44Z</time>
      </trkpt>
      <trkpt lat="44.08077" lon="6.48245">
        <ele>1093</ele>
        <time>1990-12-07T09:59:32Z</time>
      </trkpt>
      <trkpt lat="44.0805" lon="6.48262">
        <ele>1093</ele>
        <time>1990-12-07T09:59:25Z</time>
      </trkpt>
      <trkpt lat="44.07983" lon="6.48292">
        <ele>1091</ele>
        <time>1990-12-07T09:59:08Z</time>
      </trkpt>
      <trkpt lat="44.07895" lon="6.4834">
        <ele>1090</ele>
        <time>1990-12-07T09:58:44Z</time>
      </trkpt>
      <trkpt lat="44.07797" lon="6.48442">
        <ele>1087</ele>
        <time>1990-12-07T09:58:15Z</time>
      </trkpt>
      <trkpt lat="44.07733" lon="6.48492">
        <ele>1085</ele>
        <time>1990-12-07T09:57:57Z</time>
      </trkpt>
      <trkpt lat="44.0765" lon="6.48438">
        <ele>1084</ele>
        <time>1990-12-07T09:57:34Z</time>
      </trkpt>
      <trkpt lat="44.07625" lon="6.48362">
        <ele>1084</ele>
        <time>1990-12-07T09:57:20Z</time>
      </trkpt>
      <trkpt lat="44.0759" lon="6.48343">
        <ele>1083</ele>
        <time>1990-12-07T09:57:11Z</time>
      </trkpt>
      <trkpt lat="44.07522" lon="6.48257">
        <ele>1081</ele>
        <time>1990-12-07T09:56:48Z</time>
      </trkpt>
      <trkpt lat="44.07522" lon="6.4817">
        <ele>1081</ele>
        <time>1990-12-07T09:56:34Z</time>
      </trkpt>
      <trkpt lat="44.07523" lon="6.481">
        <ele>1080</ele>
        <time>1990-12-07T09:56:21Z</time>
      </trkpt>
      <trkpt lat="44.07492" lon="6.48073">
        <ele>1078</ele>
        <time>1990-12-07T09:56:11Z</time>
      </trkpt>
      <trkpt lat="44.07492" lon="6.48015">
        <ele>1080</ele>
        <time>1990-12-07T09:56:01Z</time>
      </trkpt>
      <trkpt lat="44.07518" lon="6.47952">
        <ele>1086</ele>
        <time>1990-12-07T09:55:51Z</time>
      </trkpt>
      <trkpt lat="44.07447" lon="6.479">
        <ele>1083</ele>
        <time>1990-12-07T09:55:29Z</time>
      </trkpt>
      <trkpt lat="44.07378" lon="6.4782">
        <ele>1080</ele>
        <time>1990-12-07T09:55:04Z</time>
      </trkpt>
      <trkpt lat="44.07358" lon="6.47803">
        <ele>1078</ele>
        <time>1990-12-07T09:54:54Z</time>
      </trkpt>
      <trkpt lat="44.0733" lon="6.47793">
        <ele>1078</ele>
        <time>1990-12-07T09:54:44Z</time>
      </trkpt>
      <trkpt lat="44.07312" lon="6.47753">
        <ele>1079</ele>
        <time>1990-12-07T09:54:37Z</time>
      </trkpt>
      <trkpt lat="44.07257" lon="6.47652">
        <ele>1081</ele>
        <time>1990-12-07T09:54:19Z</time>
      </trkpt>
      <trkpt lat="44.07232" lon="6.47615">
        <ele>1082</ele>
        <time>1990-12-07T09:54:12Z</time>
      </trkpt>
      <trkpt lat="44.07187" lon="6.47612">
        <ele>1084</ele>
        <time>1990-12-07T09:53:59Z</time>
      </trkpt>
      <trkpt lat="44.07182" lon="6.47608">
        <ele>1085</ele>
        <time>1990-12-07T09:52:38Z</time>
      </trkpt>
      <trkpt lat="44.0718" lon="6.47585">
        <ele>1088</ele>
        <time>1990-12-07T09:52:31Z</time>
      </trkpt>
      <trkpt lat="44.07168" lon="6.4756">
        <ele>1093</ele>
        <time>1990-12-07T09:52:21Z</time>
      </trkpt>
      <trkpt lat="44.07167" lon="6.47568">
        <ele>1097</ele>
        <time>1990-12-07T09:52:05Z</time>
      </trkpt>
      <trkpt lat="44.07147" lon="6.47558">
        <ele>1099</ele>
        <time>1990-12-07T09:51:54Z</time>
      </trkpt>
      <trkpt lat="44.07148" lon="6.47538">
        <ele>1099</ele>
        <time>1990-12-07T09:51:44Z</time>
      </trkpt>
      <trkpt lat="44.0715" lon="6.47518">
        <ele>1102</ele>
        <time>1990-12-07T09:51:39Z</time>
      </trkpt>
      <trkpt lat="44.07155" lon="6.47463">
        <ele>1110</ele>
        <time>1990-12-07T09:51:30Z</time>
      </trkpt>
      <trkpt lat="44.0715" lon="6.4743">
        <ele>1114</ele>
        <time>1990-12-07T09:51:21Z</time>
      </trkpt>
      <trkpt lat="44.07165" lon="6.47412">
        <ele>1113</ele>
        <time>1990-12-07T09:50:14Z</time>
      </trkpt>
      <trkpt lat="44.07167" lon="6.4736">
        <ele>1116</ele>
        <time>1990-12-07T09:50:02Z</time>
      </trkpt>
      <trkpt lat="44.07147" lon="6.47353">
        <ele>1120</ele>
        <time>1990-12-07T09:49:50Z</time>
      </trkpt>
      <trkpt lat="44.07142" lon="6.47333">
        <ele>1125</ele>
        <time>1990-12-07T09:49:24Z</time>
      </trkpt>
      <trkpt lat="44.07137" lon="6.47312">
        <ele>1129</ele>
        <time>1990-12-07T09:48:40Z</time>
      </trkpt>
      <trkpt lat="44.07133" lon="6.47293">
        <ele>1133</ele>
        <time>1990-12-07T09:48:25Z</time>
      </trkpt>
      <trkpt lat="44.07117" lon="6.47272">
        <ele>1139</ele>
        <time>1990-12-07T09:48:13Z</time>
      </trkpt>
      <trkpt lat="44.07098" lon="6.47233">
        <ele>1147</ele>
        <time>1990-12-07T09:48:04Z</time>
      </trkpt>
      <trkpt lat="44.07102" lon="6.4719">
        <ele>1154</ele>
        <time>1990-12-07T09:47:55Z</time>
      </trkpt>
      <trkpt lat="44.07098" lon="6.47173">
        <ele>1158</ele>
        <time>1990-12-07T09:47:50Z</time>
      </trkpt>
      <trkpt lat="44.07107" lon="6.47137">
        <ele>1166</ele>
        <time>1990-12-07T09:47:42Z</time>
      </trkpt>
      <trkpt lat="44.0711" lon="6.47107">
        <ele>1170</ele>
        <time>1990-12-07T09:45:57Z</time>
      </trkpt>
      <trkpt lat="44.0711" lon="6.47075">
        <ele>1173</ele>
        <time>1990-12-07T09:45:49Z</time>
      </trkpt>
      <trkpt lat="44.07105" lon="6.47048">
        <ele>1180</ele>
        <time>1990-12-07T09:45:41Z</time>
      </trkpt>
      <trkpt lat="44.07107" lon="6.47027">
        <ele>1185</ele>
        <time>1990-12-07T09:45:34Z</time>
      </trkpt>
      <trkpt lat="44.071" lon="6.47015">
        <ele>1188</ele>
        <time>1990-12-07T09:45:29Z</time>
      </trkpt>
      <trkpt lat="44.0709" lon="6.47003">
        <ele>1194</ele>
        <time>1990-12-07T09:45:21Z</time>
      </trkpt>
      <trkpt lat="44.07063" lon="6.46992">
        <ele>1200</ele>
        <time>1990-12-07T09:45:14Z</time>
      </trkpt>
      <trkpt lat="44.0704" lon="6.46983">
        <ele>1205</ele>
        <time>1990-12-07T09:45:08Z</time>
      </trkpt>
      <trkpt lat="44.07002" lon="6.46927">
        <ele>1211</ele>
        <time>1990-12-07T09:44:54Z</time>
      </trkpt>
      <trkpt lat="44.06992" lon="6.46877">
        <ele>1219</ele>
        <time>1990-12-07T09:44:46Z</time>
      </trkpt>
      <trkpt lat="44.06988" lon="6.46853">
        <ele>1223</ele>
        <time>1990-12-07T09:44:41Z</time>
      </trkpt>
      <trkpt lat="44.06992" lon="6.46828">
        <ele>1224</ele>
        <time>1990-12-07T09:44:33Z</time>
      </trkpt>
      <trkpt lat="44.06982" lon="6.46785">
        <ele>1232</ele>
        <time>1990-12-07T09:44:24Z</time>
      </trkpt>
      <trkpt lat="44.06968" lon="6.46765">
        <ele>1235</ele>
        <time>1990-12-07T09:44:17Z</time>
      </trkpt>
      <trkpt lat="44.06963" lon="6.46723">
        <ele>1241</ele>
        <time>1990-12-07T09:44:09Z</time>
      </trkpt>
      <trkpt lat="44.06968" lon="6.46683">
        <ele>1245</ele>
        <time>1990-12-07T09:44:02Z</time>
      </trkpt>
      <trkpt lat="44.06953" lon="6.46653">
        <ele>1249</ele>
        <time>1990-12-07T09:43:56Z</time>
      </trkpt>
      <trkpt lat="44.06955" lon="6.46635">
        <ele>1251</ele>
        <time>1990-12-07T09:43:51Z</time>
      </trkpt>
      <trkpt lat="44.06953" lon="6.46595">
        <ele>1255</ele>
        <time>1990-12-07T09:43:43Z</time>
      </trkpt>
      <trkpt lat="44.0693" lon="6.46543">
        <ele>1261</ele>
        <time>1990-12-07T09:43:29Z</time>
      </trkpt>
      <trkpt lat="44.06912" lon="6.46495">
        <ele>1266</ele>
        <time>1990-12-07T09:43:11Z</time>
      </trkpt>
      <trkpt lat="44.069" lon="6.465">
        <ele>1269</ele>
        <time>1990-12-07T09:42:30Z</time>
      </trkpt>
      <trkpt lat="44.06875" lon="6.46525">
        <ele>1270</ele>
        <time>1990-12-07T09:42:00Z</time>
      </trkpt>
      <trkpt lat="44.0686" lon="6.46537">
        <ele>1272</ele>
        <time>1990-12-07T09:41:50Z</time>
      </trkpt>
      <trkpt lat="44.06847" lon="6.46533">
        <ele>1274</ele>
        <time>1990-12-07T09:41:45Z</time>
      </trkpt>
      <trkpt lat="44.06835" lon="6.4651">
        <ele>1277</ele>
        <time>1990-12-07T09:41:39Z</time>
      </trkpt>
      <trkpt lat="44.06807" lon="6.46493">
        <ele>1280</ele>
        <time>1990-12-07T09:41:19Z</time>
      </trkpt>
      <trkpt lat="44.06797" lon="6.46467">
        <ele>1283</ele>
        <time>1990-12-07T09:40:57Z</time>
      </trkpt>
      <trkpt lat="44.06793" lon="6.46467">
        <ele>1286</ele>
        <time>1990-12-07T09:40:12Z</time>
      </trkpt>
      <trkpt lat="44.06787" lon="6.46455">
        <ele>1284</ele>
        <time>1990-12-07T09:38:40Z</time>
      </trkpt>
      <trkpt lat="44.06763" lon="6.46427">
        <ele>1288</ele>
        <time>1990-12-07T09:37:54Z</time>
      </trkpt>
      <trkpt lat="44.06767" lon="6.46417">
        <ele>1290</ele>
        <time>1990-12-07T09:37:30Z</time>
      </trkpt>
    </trkseg>
  </trk>
</gpx>